Time,TemperatureF,DewpointF,PressureIn,WindDirection,WindDirectionDegrees,WindSpeedMPH,WindSpeedGustMPH,Humidity,HourlyPrecipIn,Conditions,Clouds,dailyrainin,SoftwareType,DateUTC
2013-02-23 00:00:00,33.1,15.5,29.32,North,0,0.0,0.0,48,0.00,,,0.21,WUHU216HW,2013-02-23 05:00:00,
2013-02-23 00:01:00,33.1,15.5,29.33,North,0,0.0,0.0,48,0.00,,,0.21,WUHU216HW,2013-02-23 05:01:00,
2013-02-23 00:06:00,32.9,15.3,29.32,North,0,0.0,0.0,48,0.00,,,0.00,WUHU216HW,2013-02-23 05:06:00,
2013-02-23 00:11:00,32.9,14.8,29.33,North,0,0.0,0.0,47,0.00,,,0.00,WUHU216HW,2013-02-23 05:11:00,
2013-02-23 00:16:00,32.9,15.3,29.33,North,0,0.0,0.0,48,0.00,,,0.00,WUHU216HW,2013-02-23 05:16:00,
2013-02-23 00:21:00,32.9,15.8,29.33,North,0,0.0,0.0,49,0.00,,,0.00,WUHU216HW,2013-02-23 05:21:00,
2013-02-23 00:26:00,32.8,16.6,29.33,North,0,0.0,0.0,51,0.00,,,0.00,WUHU216HW,2013-02-23 05:26:00,
2013-02-23 00:31:00,32.6,16.4,29.33,North,0,0.0,0.0,51,0.00,,,0.00,WUHU216HW,2013-02-23 05:31:00,
2013-02-23 00:36:00,32.4,17.1,29.33,North,0,0.0,0.0,53,0.00,,,0.00,WUHU216HW,2013-02-23 05:36:00,
2013-02-23 00:41:00,32.4,18.0,29.33,North,0,0.0,0.0,55,0.00,,,0.00,WUHU216HW,2013-02-23 05:41:00,
2013-02-23 00:46:00,32.2,17.8,29.33,North,0,0.0,0.0,55,0.00,,,0.00,WUHU216HW,2013-02-23 05:46:00,
2013-02-23 00:51:00,32.2,18.3,29.32,North,0,0.0,0.0,56,0.00,,,0.00,WUHU216HW,2013-02-23 05:51:00,
2013-02-23 00:56:00,32.0,18.9,29.32,North,0,0.0,0.0,58,0.00,,,0.00,WUHU216HW,2013-02-23 05:56:00,
2013-02-23 01:01:00,31.9,19.2,29.33,North,0,0.0,0.0,59,0.00,,,0.00,WUHU216HW,2013-02-23 06:01:00,
2013-02-23 01:06:00,31.7,20.2,29.32,North,0,0.0,0.0,62,0.00,,,0.00,WUHU216HW,2013-02-23 06:06:00,
2013-02-23 01:12:00,31.7,19.8,29.33,North,0,0.0,0.0,61,0.00,,,0.00,WUHU216HW,2013-02-23 06:12:00,
2013-02-23 01:17:00,31.5,20.0,29.33,North,0,0.0,0.0,62,0.00,,,0.00,WUHU216HW,2013-02-23 06:17:00,
2013-02-23 01:22:00,31.5,19.3,29.33,North,0,0.0,0.0,60,0.00,,,0.00,WUHU216HW,2013-02-23 06:22:00,
2013-02-23 01:27:00,31.3,19.8,29.33,North,0,0.0,0.0,62,0.00,,,0.00,WUHU216HW,2013-02-23 06:27:00,
2013-02-23 01:32:00,31.3,19.1,29.33,North,0,0.0,0.0,60,0.00,,,0.00,WUHU216HW,2013-02-23 06:32:00,
2013-02-23 01:37:00,31.3,19.1,29.33,North,0,0.0,0.0,60,0.00,,,0.00,WUHU216HW,2013-02-23 06:37:00,
2013-02-23 01:42:00,31.1,18.5,29.33,North,0,0.0,0.0,59,0.00,,,0.00,WUHU216HW,2013-02-23 06:42:00,
2013-02-23 01:47:00,31.0,20.5,29.33,North,0,0.0,0.0,65,0.00,,,0.00,WUHU216HW,2013-02-23 06:47:00,
2013-02-23 01:52:00,30.8,20.3,29.34,North,0,0.0,0.0,65,0.00,,,0.00,WUHU216HW,2013-02-23 06:52:00,
2013-02-23 01:57:00,30.6,20.5,29.34,North,0,0.0,0.0,66,0.00,,,0.00,WUHU216HW,2013-02-23 06:57:00,
2013-02-23 02:02:00,30.6,19.8,29.34,North,0,0.0,0.0,64,0.00,,,0.00,WUHU216HW,2013-02-23 07:02:00,
2013-02-23 02:08:00,30.4,20.3,29.33,North,0,0.0,0.0,66,0.00,,,0.00,WUHU216HW,2013-02-23 07:08:00,
2013-02-23 02:12:00,30.2,20.2,29.33,North,0,0.0,0.0,66,0.00,,,0.00,WUHU216HW,2013-02-23 07:12:00,
2013-02-23 02:18:00,30.2,20.2,29.33,North,0,0.0,0.0,66,0.00,,,0.00,WUHU216HW,2013-02-23 07:18:00,
2013-02-23 02:23:00,30.1,20.0,29.33,North,0,0.0,0.0,66,0.00,,,0.00,WUHU216HW,2013-02-23 07:23:00,
2013-02-23 02:28:00,30.1,20.0,29.33,North,0,0.0,0.0,66,0.00,,,0.00,WUHU216HW,2013-02-23 07:28:00,
2013-02-23 02:33:00,29.9,19.8,29.33,North,0,0.0,0.0,66,0.00,,,0.00,WUHU216HW,2013-02-23 07:33:00,
2013-02-23 02:38:00,30.1,20.0,29.33,North,0,0.0,0.0,66,0.00,,,0.00,WUHU216HW,2013-02-23 07:38:00,
2013-02-23 02:43:00,29.9,19.8,29.33,North,0,0.0,0.0,66,0.00,,,0.00,WUHU216HW,2013-02-23 07:43:00,
2013-02-23 02:48:00,29.9,19.8,29.33,North,0,0.0,0.0,66,0.00,,,0.00,WUHU216HW,2013-02-23 07:48:00,
2013-02-23 02:53:00,29.9,19.8,29.33,North,0,0.0,0.0,66,0.00,,,0.00,WUHU216HW,2013-02-23 07:53:00,
2013-02-23 02:59:00,29.7,19.7,29.33,North,0,0.0,0.0,66,0.00,,,0.00,WUHU216HW,2013-02-23 07:59:00,
2013-02-23 03:04:00,29.7,19.7,29.33,North,0,0.0,0.0,66,0.00,,,0.00,WUHU216HW,2013-02-23 08:04:00,
2013-02-23 03:09:00,29.7,19.7,29.33,North,0,0.0,0.0,66,0.00,,,0.00,WUHU216HW,2013-02-23 08:09:00,
2013-02-23 03:14:00,29.5,19.5,29.32,North,0,0.0,0.0,66,0.00,,,0.00,WUHU216HW,2013-02-23 08:14:00,
2013-02-23 03:19:00,29.3,19.7,29.33,North,0,0.0,0.0,67,0.00,,,0.00,WUHU216HW,2013-02-23 08:19:00,
2013-02-23 03:24:00,29.3,19.4,29.32,North,0,0.0,0.0,66,0.00,,,0.00,WUHU216HW,2013-02-23 08:24:00,
2013-02-23 03:29:00,29.2,19.2,29.32,North,0,0.0,0.0,66,0.00,,,0.00,WUHU216HW,2013-02-23 08:29:00,
2013-02-23 03:34:00,29.2,19.2,29.32,North,0,0.0,0.0,66,0.00,,,0.00,WUHU216HW,2013-02-23 08:34:00,
2013-02-23 03:39:00,29.0,19.0,29.32,North,0,0.0,0.0,66,0.00,,,0.00,WUHU216HW,2013-02-23 08:39:00,
2013-02-23 03:44:00,28.6,18.7,29.32,North,0,0.0,0.0,66,0.00,,,0.00,WUHU216HW,2013-02-23 08:44:00,
2013-02-23 03:50:00,28.4,18.5,29.32,North,0,0.0,0.0,66,0.00,,,0.00,WUHU216HW,2013-02-23 08:50:00,
2013-02-23 03:55:00,28.3,18.0,29.32,North,0,0.0,0.0,65,0.00,,,0.00,WUHU216HW,2013-02-23 08:55:00,
2013-02-23 04:00:00,28.1,17.8,29.32,North,0,0.0,0.0,65,0.00,,,0.00,WUHU216HW,2013-02-23 09:00:00,
2013-02-23 04:05:00,27.9,17.6,29.32,North,0,0.0,0.0,65,0.00,,,0.00,WUHU216HW,2013-02-23 09:05:00,
2013-02-23 04:10:00,27.7,17.5,29.32,North,0,0.0,0.0,65,0.00,,,0.00,WUHU216HW,2013-02-23 09:10:00,
2013-02-23 04:15:00,27.4,17.1,29.32,North,0,0.0,0.0,65,0.00,,,0.00,WUHU216HW,2013-02-23 09:15:00,
2013-02-23 04:20:00,27.2,16.6,29.32,North,0,0.0,0.0,64,0.00,,,0.00,WUHU216HW,2013-02-23 09:20:00,
2013-02-23 04:25:00,27.0,16.4,29.32,North,0,0.0,0.0,64,0.00,,,0.00,WUHU216HW,2013-02-23 09:25:00,
2013-02-23 04:31:00,27.0,16.0,29.32,North,0,0.0,0.0,63,0.00,,,0.00,WUHU216HW,2013-02-23 09:31:00,
2013-02-23 04:36:00,26.8,15.8,29.32,North,0,0.0,0.0,63,0.00,,,0.00,WUHU216HW,2013-02-23 09:36:00,
2013-02-23 04:41:00,26.8,15.5,29.32,North,0,0.0,0.0,62,0.00,,,0.00,WUHU216HW,2013-02-23 09:41:00,
2013-02-23 04:46:00,26.6,15.3,29.32,North,0,0.0,0.0,62,0.00,,,0.00,WUHU216HW,2013-02-23 09:46:00,
2013-02-23 04:51:00,26.6,15.3,29.32,North,0,0.0,0.0,62,0.00,,,0.00,WUHU216HW,2013-02-23 09:51:00,
2013-02-23 04:56:00,26.3,14.9,29.32,North,0,0.0,0.0,62,0.00,,,0.00,WUHU216HW,2013-02-23 09:56:00,
2013-02-23 05:01:00,26.3,14.6,29.32,North,0,0.0,0.0,61,0.00,,,0.00,WUHU216HW,2013-02-23 10:01:00,
2013-02-23 05:06:00,26.1,14.5,29.33,North,0,0.0,0.0,61,0.00,,,0.00,WUHU216HW,2013-02-23 10:06:00,
2013-02-23 05:11:00,25.9,14.3,29.33,North,0,0.0,0.0,61,0.00,,,0.00,WUHU216HW,2013-02-23 10:11:00,
2013-02-23 05:16:00,26.1,13.7,29.33,North,0,0.0,0.0,59,0.00,,,0.00,WUHU216HW,2013-02-23 10:16:00,
2013-02-23 05:21:00,26.1,13.7,29.33,North,0,0.0,0.0,59,0.00,,,0.00,WUHU216HW,2013-02-23 10:21:00,
2013-02-23 05:26:00,26.1,13.2,29.33,North,0,0.0,0.0,58,0.00,,,0.00,WUHU216HW,2013-02-23 10:26:00,
2013-02-23 05:31:00,25.9,13.5,29.33,North,0,0.0,0.0,59,0.00,,,0.00,WUHU216HW,2013-02-23 10:31:00,
2013-02-23 05:36:00,25.9,13.5,29.33,North,0,0.0,0.0,59,0.00,,,0.00,WUHU216HW,2013-02-23 10:36:00,
2013-02-23 05:41:00,25.9,12.7,29.32,North,0,0.0,0.0,57,0.00,,,0.00,WUHU216HW,2013-02-23 10:41:00,
2013-02-23 05:46:00,26.1,12.1,29.32,North,0,0.0,0.0,55,0.00,,,0.00,WUHU216HW,2013-02-23 10:46:00,
2013-02-23 05:51:00,26.3,12.6,29.32,North,0,0.0,0.0,56,0.00,,,0.00,WUHU216HW,2013-02-23 10:51:00,
2013-02-23 05:57:00,26.3,13.4,29.33,North,0,0.0,0.0,58,0.00,,,0.00,WUHU216HW,2013-02-23 10:57:00,
2013-02-23 06:02:00,26.1,12.9,29.33,North,0,0.0,0.0,57,0.00,,,0.00,WUHU216HW,2013-02-23 11:02:00,
2013-02-23 06:07:00,25.9,13.2,29.33,North,0,0.0,0.0,58,0.00,,,0.00,WUHU216HW,2013-02-23 11:07:00,
2013-02-23 06:12:00,25.7,13.0,29.33,North,0,0.0,0.0,58,0.00,,,0.00,WUHU216HW,2013-02-23 11:12:00,
2013-02-23 06:17:00,25.7,12.5,29.33,North,0,0.0,0.0,57,0.00,,,0.00,WUHU216HW,2013-02-23 11:17:00,
2013-02-23 06:22:00,25.6,12.3,29.33,North,0,0.0,0.0,57,0.00,,,0.00,WUHU216HW,2013-02-23 11:22:00,
2013-02-23 06:27:00,25.6,12.3,29.34,North,0,0.0,0.0,57,0.00,,,0.00,WUHU216HW,2013-02-23 11:27:00,
2013-02-23 06:32:00,25.4,11.8,29.33,North,0,0.0,0.0,56,0.00,,,0.00,WUHU216HW,2013-02-23 11:32:00,
2013-02-23 06:37:00,25.4,11.8,29.34,North,0,0.0,0.0,56,0.00,,,0.00,WUHU216HW,2013-02-23 11:37:00,
2013-02-23 06:42:00,25.2,12.1,29.34,North,0,0.0,0.0,57,0.00,,,0.00,WUHU216HW,2013-02-23 11:42:00,
2013-02-23 06:47:00,25.4,11.0,29.34,North,0,0.0,0.0,54,0.00,,,0.00,WUHU216HW,2013-02-23 11:47:00,
2013-02-23 06:52:00,25.6,11.2,29.34,North,0,0.0,0.0,54,0.00,,,0.00,WUHU216HW,2013-02-23 11:52:00,
2013-02-23 06:58:00,25.6,11.5,29.34,North,0,0.0,0.0,55,0.00,,,0.00,WUHU216HW,2013-02-23 11:58:00,
2013-02-23 07:03:00,25.6,10.7,29.34,North,0,0.0,0.0,53,0.00,,,0.00,WUHU216HW,2013-02-23 12:03:00,
2013-02-23 07:08:00,25.4,11.3,29.34,North,0,0.0,0.0,55,0.00,,,0.00,WUHU216HW,2013-02-23 12:08:00,
2013-02-23 07:13:00,25.4,11.0,29.34,North,0,0.0,0.0,54,0.00,,,0.00,WUHU216HW,2013-02-23 12:13:00,
2013-02-23 07:18:00,25.2,10.8,29.34,North,0,0.0,0.0,54,0.00,,,0.00,WUHU216HW,2013-02-23 12:18:00,
2013-02-23 07:23:00,25.0,11.1,29.33,North,0,0.0,0.0,55,0.00,,,0.00,WUHU216HW,2013-02-23 12:23:00,
2013-02-23 07:28:00,25.0,11.1,29.34,North,0,0.0,0.0,55,0.00,,,0.00,WUHU216HW,2013-02-23 12:28:00,
2013-02-23 07:33:00,25.0,9.8,29.34,North,0,0.0,0.0,52,0.00,,,0.00,WUHU216HW,2013-02-23 12:33:00,
2013-02-23 07:38:00,25.0,10.6,29.34,North,0,0.0,0.0,54,0.00,,,0.00,WUHU216HW,2013-02-23 12:38:00,
2013-02-23 07:43:00,25.2,10.4,29.34,North,0,0.0,0.0,53,0.00,,,0.00,WUHU216HW,2013-02-23 12:43:00,
2013-02-23 07:48:00,25.0,10.3,29.34,North,0,0.0,0.0,53,0.00,,,0.00,WUHU216HW,2013-02-23 12:48:00,
2013-02-23 07:53:00,25.2,9.5,29.34,North,0,0.0,0.0,51,0.00,,,0.00,WUHU216HW,2013-02-23 12:53:00,
2013-02-23 07:58:00,25.4,9.7,29.34,North,0,0.0,0.0,51,0.00,,,0.00,WUHU216HW,2013-02-23 12:58:00,
2013-02-23 08:03:00,25.4,10.5,29.34,North,0,0.0,0.0,53,0.00,,,0.00,WUHU216HW,2013-02-23 13:03:00,
2013-02-23 08:08:00,25.6,9.9,29.34,North,0,0.0,0.0,51,0.00,,,0.00,WUHU216HW,2013-02-23 13:08:00,
2013-02-23 08:13:00,25.7,10.4,29.34,North,0,0.0,0.0,52,0.00,,,0.00,WUHU216HW,2013-02-23 13:13:00,
2013-02-23 08:19:00,26.3,10.5,29.34,North,0,0.0,0.0,51,0.00,,,0.00,WUHU216HW,2013-02-23 13:19:00,
2013-02-23 08:24:00,26.6,11.7,29.34,North,0,0.0,0.0,53,0.00,,,0.00,WUHU216HW,2013-02-23 13:24:00,
2013-02-23 08:29:00,27.0,12.4,29.35,North,0,0.0,0.0,54,0.00,,,0.00,WUHU216HW,2013-02-23 13:29:00,
2013-02-23 08:34:00,27.4,14.0,29.35,North,0,0.0,0.0,57,0.00,,,0.00,WUHU216HW,2013-02-23 13:34:00,
2013-02-23 08:39:00,27.7,14.9,29.34,North,0,0.0,0.0,58,0.00,,,0.00,WUHU216HW,2013-02-23 13:39:00,
2013-02-23 08:44:00,27.7,15.7,29.34,North,0,0.0,0.0,60,0.00,,,0.00,WUHU216HW,2013-02-23 13:44:00,
2013-02-23 08:49:00,28.4,15.1,29.34,North,0,0.0,0.0,57,0.00,,,0.00,WUHU216HW,2013-02-23 13:49:00,
2013-02-23 08:54:00,28.4,17.1,29.34,North,0,0.0,0.0,62,0.00,,,0.00,WUHU216HW,2013-02-23 13:54:00,
2013-02-23 08:59:00,28.4,17.1,29.34,North,0,0.0,0.0,62,0.00,,,0.00,WUHU216HW,2013-02-23 13:59:00,
2013-02-23 09:04:00,29.2,18.1,29.34,North,0,0.0,0.0,63,0.00,,,0.00,WUHU216HW,2013-02-23 14:04:00,
2013-02-23 09:09:00,29.9,17.3,29.34,North,0,0.0,0.0,59,0.00,,,0.00,WUHU216HW,2013-02-23 14:09:00,
2013-02-23 09:14:00,30.2,19.4,29.34,North,0,0.0,0.0,64,0.00,,,0.00,WUHU216HW,2013-02-23 14:14:00,
2013-02-23 09:19:00,30.2,20.2,29.34,North,0,0.0,0.0,66,0.00,,,0.00,WUHU216HW,2013-02-23 14:19:00,
2013-02-23 09:24:00,29.9,19.8,29.34,North,0,0.0,0.0,66,0.00,,,0.00,WUHU216HW,2013-02-23 14:24:00,
2013-02-23 09:29:00,30.2,19.4,29.34,North,0,0.0,0.0,64,0.00,,,0.00,WUHU216HW,2013-02-23 14:29:00,
2013-02-23 09:34:00,31.0,20.9,29.34,North,0,0.0,0.0,66,0.00,,,0.00,WUHU216HW,2013-02-23 14:34:00,
2013-02-23 09:39:00,30.6,20.5,29.34,North,0,0.0,0.0,66,0.00,,,0.00,WUHU216HW,2013-02-23 14:39:00,
2013-02-23 09:44:00,30.8,20.7,29.34,North,0,0.0,0.0,66,0.00,,,0.00,WUHU216HW,2013-02-23 14:44:00,
2013-02-23 09:49:00,31.9,21.1,29.33,North,0,0.0,0.0,64,0.00,,,0.00,WUHU216HW,2013-02-23 14:49:00,
2013-02-23 09:54:00,32.8,22.2,29.34,North,0,0.0,0.0,65,0.00,,,0.00,WUHU216HW,2013-02-23 14:54:00,
2013-02-23 09:59:00,33.5,23.2,29.33,North,0,0.0,0.0,66,0.00,,,0.00,WUHU216HW,2013-02-23 14:59:00,
2013-02-23 10:04:00,32.9,23.1,29.33,North,0,0.0,0.0,67,0.00,,,0.00,WUHU216HW,2013-02-23 15:04:00,
2013-02-23 10:09:00,33.7,23.8,29.33,North,0,0.0,0.0,67,0.00,,,0.00,WUHU216HW,2013-02-23 15:09:00,
2013-02-23 10:14:00,33.5,23.6,29.33,North,0,0.0,0.0,67,0.00,,,0.00,WUHU216HW,2013-02-23 15:14:00,
2013-02-23 10:19:00,34.4,24.5,29.33,North,0,0.0,0.0,67,0.00,,,0.00,WUHU216HW,2013-02-23 15:19:00,
2013-02-23 10:24:00,34.9,24.7,29.33,North,0,0.0,0.0,66,0.00,,,0.00,WUHU216HW,2013-02-23 15:24:00,
2013-02-23 10:30:00,35.5,24.5,29.34,North,0,0.0,0.0,64,0.00,,,0.00,WUHU216HW,2013-02-23 15:30:00,
2013-02-23 10:35:00,34.9,23.9,29.34,North,0,0.0,0.0,64,0.00,,,0.00,WUHU216HW,2013-02-23 15:35:00,
2013-02-23 10:40:00,35.6,23.9,29.34,North,0,0.0,0.0,62,0.00,,,0.00,WUHU216HW,2013-02-23 15:40:00,
2013-02-23 10:45:00,36.5,24.8,29.34,North,0,0.0,0.0,62,0.00,,,0.00,WUHU216HW,2013-02-23 15:45:00,
2013-02-23 10:50:00,35.8,24.1,29.34,North,0,0.0,0.0,62,0.00,,,0.00,WUHU216HW,2013-02-23 15:50:00,
2013-02-23 10:55:00,35.8,24.5,29.34,North,0,0.0,0.0,63,0.01,,,0.02,WUHU216HW,2013-02-23 15:55:00,
2013-02-23 11:00:00,35.3,24.3,29.34,North,0,0.0,0.0,64,0.01,,,0.02,WUHU216HW,2013-02-23 16:00:00,
2013-02-23 11:05:00,35.3,23.9,29.33,North,0,0.0,0.0,63,0.01,,,0.02,WUHU216HW,2013-02-23 16:05:00,
2013-02-23 11:10:00,35.1,23.4,29.33,North,0,0.0,0.0,62,0.01,,,0.02,WUHU216HW,2013-02-23 16:10:00,
2013-02-23 11:15:00,37.1,24.5,29.33,North,0,0.0,0.0,60,0.01,,,0.02,WUHU216HW,2013-02-23 16:15:00,
2013-02-23 11:20:00,36.9,24.0,29.33,North,0,0.0,0.0,59,0.01,,,0.02,WUHU216HW,2013-02-23 16:20:00,
2013-02-23 11:25:00,37.3,25.5,29.33,North,0,0.0,0.0,62,0.01,,,0.02,WUHU216HW,2013-02-23 16:25:00,
2013-02-23 11:30:00,38.3,25.2,29.33,North,0,0.0,0.0,59,0.01,,,0.02,WUHU216HW,2013-02-23 16:30:00,
2013-02-23 11:35:00,37.8,23.9,29.33,North,0,0.0,0.0,57,0.02,,,0.02,WUHU216HW,2013-02-23 16:35:00,
2013-02-23 11:40:00,35.6,22.8,29.33,North,0,0.0,0.0,59,0.02,,,0.02,WUHU216HW,2013-02-23 16:40:00,
2013-02-23 11:45:00,34.0,22.7,29.33,North,0,0.0,0.0,63,0.02,,,0.02,WUHU216HW,2013-02-23 16:45:00,
2013-02-23 11:50:00,33.7,22.7,29.33,North,0,0.0,0.0,64,0.01,,,0.02,WUHU216HW,2013-02-23 16:50:00,
2013-02-23 11:55:00,33.7,22.3,29.34,North,0,0.0,0.0,63,0.01,,,0.02,WUHU216HW,2013-02-23 16:55:00,
2013-02-23 12:00:00,33.5,22.5,29.34,North,0,0.0,0.0,64,0.01,,,0.02,WUHU216HW,2013-02-23 17:00:00,
2013-02-23 12:05:00,33.8,22.9,29.34,North,0,0.0,0.0,64,0.01,,,0.02,WUHU216HW,2013-02-23 17:05:00,
2013-02-23 12:10:00,34.9,23.6,29.34,North,0,0.0,0.0,63,0.01,,,0.02,WUHU216HW,2013-02-23 17:10:00,
2013-02-23 12:15:00,37.4,26.0,29.34,North,0,0.0,0.0,63,0.01,,,0.02,WUHU216HW,2013-02-23 17:15:00,
2013-02-23 12:20:00,37.1,24.1,29.33,North,0,0.0,0.0,59,0.01,,,0.02,WUHU216HW,2013-02-23 17:20:00,
2013-02-23 12:25:00,35.8,23.8,29.33,North,0,0.0,0.0,61,0.02,,,0.04,WUHU216HW,2013-02-23 17:25:00,
2013-02-23 12:30:00,36.2,24.0,29.33,North,0,0.0,0.0,61,0.02,,,0.04,WUHU216HW,2013-02-23 17:30:00,
2013-02-23 12:35:00,36.2,23.7,29.33,North,0,0.0,0.0,60,0.01,,,0.04,WUHU216HW,2013-02-23 17:35:00,
2013-02-23 12:40:00,37.8,26.3,29.33,North,0,0.0,0.0,63,0.01,,,0.04,WUHU216HW,2013-02-23 17:40:00,
2013-02-23 12:46:00,38.3,24.8,29.32,North,0,0.0,0.0,58,0.01,,,0.04,WUHU216HW,2013-02-23 17:46:00,
2013-02-23 12:51:00,39.4,27.0,29.32,North,0,0.0,0.0,61,0.01,,,0.04,WUHU216HW,2013-02-23 17:51:00,
2013-02-23 12:56:00,39.8,25.7,29.32,North,0,0.0,0.0,57,0.02,,,0.04,WUHU216HW,2013-02-23 17:56:00,
2013-02-23 13:00:00,40.3,27.1,29.32,North,0,0.0,0.0,59,0.02,,,0.04,WUHU216HW,2013-02-23 18:00:00,
2013-02-23 13:06:00,38.9,25.8,29.32,North,0,0.0,0.0,59,0.02,,,0.04,WUHU216HW,2013-02-23 18:06:00,
2013-02-23 13:11:00,38.7,25.1,29.32,North,0,0.0,0.0,58,0.02,,,0.04,WUHU216HW,2013-02-23 18:11:00,
2013-02-23 13:16:00,39.6,25.9,29.32,North,0,0.0,0.0,58,0.02,,,0.04,WUHU216HW,2013-02-23 18:16:00,
2013-02-23 13:21:00,39.1,25.5,29.32,North,0,0.0,0.0,58,0.02,,,0.06,WUHU216HW,2013-02-23 18:21:00,
2013-02-23 13:26:00,38.0,24.5,29.32,North,0,0.0,0.0,58,0.02,,,0.06,WUHU216HW,2013-02-23 18:26:00,
2013-02-23 13:31:00,38.0,26.1,29.31,North,0,0.0,0.0,62,0.02,,,0.06,WUHU216HW,2013-02-23 18:31:00,
2013-02-23 13:36:00,38.7,25.1,29.31,North,0,0.0,0.0,58,0.02,,,0.06,WUHU216HW,2013-02-23 18:36:00,
2013-02-23 13:41:00,39.4,25.4,29.30,North,0,0.0,0.0,57,0.02,,,0.06,WUHU216HW,2013-02-23 18:41:00,
2013-02-23 13:46:00,39.4,26.2,29.29,North,0,0.0,0.0,59,0.02,,,0.06,WUHU216HW,2013-02-23 18:46:00,
2013-02-23 13:51:00,40.3,26.6,29.29,North,0,0.0,0.0,58,0.02,,,0.06,WUHU216HW,2013-02-23 18:51:00,
2013-02-23 13:56:00,40.7,26.6,29.29,North,0,0.0,0.0,57,0.01,,,0.06,WUHU216HW,2013-02-23 18:56:00,
2013-02-23 14:01:00,41.2,25.8,29.29,North,0,0.0,0.0,54,0.01,,,0.06,WUHU216HW,2013-02-23 19:01:00,
2013-02-23 14:06:00,40.5,25.0,29.29,North,0,0.0,0.0,54,0.01,,,0.06,WUHU216HW,2013-02-23 19:06:00,
2013-02-23 14:11:00,41.4,25.9,29.29,North,0,0.0,0.0,54,0.01,,,0.06,WUHU216HW,2013-02-23 19:11:00,
2013-02-23 14:16:00,40.7,25.2,29.30,North,0,0.0,0.0,54,0.02,,,0.07,WUHU216HW,2013-02-23 19:16:00,
2013-02-23 14:21:00,40.9,26.7,29.29,North,0,0.0,0.0,57,0.01,,,0.07,WUHU216HW,2013-02-23 19:21:00,
2013-02-23 14:26:00,42.8,28.2,29.29,North,0,0.0,0.0,56,0.01,,,0.07,WUHU216HW,2013-02-23 19:26:00,
2013-02-23 14:31:00,43.6,27.6,29.29,North,0,0.0,0.0,53,0.01,,,0.07,WUHU216HW,2013-02-23 19:31:00,
2013-02-23 14:36:00,42.8,27.7,29.29,North,0,0.0,0.0,55,0.01,,,0.07,WUHU216HW,2013-02-23 19:36:00,
2013-02-23 14:41:00,42.3,25.9,29.29,North,0,0.0,0.0,52,0.01,,,0.07,WUHU216HW,2013-02-23 19:41:00,
2013-02-23 14:46:00,41.4,25.9,29.29,North,0,0.0,0.0,54,0.01,,,0.07,WUHU216HW,2013-02-23 19:46:00,
2013-02-23 14:51:00,41.4,26.4,29.29,North,0,0.0,0.0,55,0.01,,,0.07,WUHU216HW,2013-02-23 19:51:00,
2013-02-23 14:56:00,42.8,27.7,29.30,North,0,0.0,0.0,55,0.01,,,0.07,WUHU216HW,2013-02-23 19:56:00,
2013-02-23 15:01:00,42.8,26.8,29.30,North,0,0.0,0.0,53,0.01,,,0.07,WUHU216HW,2013-02-23 20:01:00,
2013-02-23 15:06:00,42.7,27.5,29.30,North,0,0.0,0.0,55,0.02,,,0.07,WUHU216HW,2013-02-23 20:06:00,
2013-02-23 15:12:00,42.5,26.6,29.29,North,0,0.0,0.0,53,0.01,,,0.07,WUHU216HW,2013-02-23 20:12:00,
2013-02-23 15:17:00,41.9,26.0,29.29,North,0,0.0,0.0,53,0.01,,,0.07,WUHU216HW,2013-02-23 20:17:00,
2013-02-23 15:22:00,42.1,25.8,29.29,North,0,0.0,0.0,52,0.01,,,0.07,WUHU216HW,2013-02-23 20:22:00,
2013-02-23 15:27:00,41.2,26.2,29.29,North,0,0.0,0.0,55,0.01,,,0.07,WUHU216HW,2013-02-23 20:27:00,
2013-02-23 15:32:00,42.1,26.2,29.29,North,0,0.0,0.0,53,0.01,,,0.07,WUHU216HW,2013-02-23 20:32:00,
2013-02-23 15:36:00,41.6,26.6,29.29,North,0,0.0,0.0,55,0.01,,,0.07,WUHU216HW,2013-02-23 20:36:00,
2013-02-23 15:42:00,41.9,26.0,29.30,North,0,0.0,0.0,53,0.01,,,0.07,WUHU216HW,2013-02-23 20:42:00,
2013-02-23 15:47:00,41.8,26.7,29.29,North,0,0.0,0.0,55,0.01,,,0.07,WUHU216HW,2013-02-23 20:47:00,
2013-02-23 15:52:00,41.8,26.7,29.29,North,0,0.0,0.0,55,0.01,,,0.07,WUHU216HW,2013-02-23 20:52:00,
2013-02-23 15:57:00,42.1,25.8,29.29,North,0,0.0,0.0,52,0.01,,,0.07,WUHU216HW,2013-02-23 20:57:00,
2013-02-23 16:02:00,41.9,26.9,29.29,North,0,0.0,0.0,55,0.01,,,0.07,WUHU216HW,2013-02-23 21:02:00,
2013-02-23 16:07:00,43.0,27.5,29.28,North,0,0.0,0.0,54,0.00,,,0.07,WUHU216HW,2013-02-23 21:07:00,
2013-02-23 16:12:00,42.8,26.8,29.28,North,0,0.0,0.0,53,0.00,,,0.07,WUHU216HW,2013-02-23 21:12:00,
2013-02-23 16:17:00,42.5,26.6,29.28,North,0,0.0,0.0,53,0.00,,,0.07,WUHU216HW,2013-02-23 21:17:00,
2013-02-23 16:22:00,42.7,26.6,29.29,North,0,0.0,0.0,53,0.00,,,0.07,WUHU216HW,2013-02-23 21:22:00,
2013-02-23 16:27:00,43.2,27.2,29.29,North,0,0.0,0.0,53,0.00,,,0.07,WUHU216HW,2013-02-23 21:27:00,
2013-02-23 16:32:00,42.8,26.5,29.29,North,0,0.0,0.0,52,0.00,,,0.07,WUHU216HW,2013-02-23 21:32:00,
2013-02-23 16:37:00,42.8,26.8,29.28,North,0,0.0,0.0,53,0.01,,,0.07,WUHU216HW,2013-02-23 21:37:00,
2013-02-23 16:42:00,41.4,25.5,29.29,North,0,0.0,0.0,53,0.01,,,0.09,WUHU216HW,2013-02-23 21:42:00,
2013-02-23 16:47:00,41.4,25.9,29.29,North,0,0.0,0.0,54,0.01,,,0.09,WUHU216HW,2013-02-23 21:47:00,
2013-02-23 16:52:00,41.0,26.0,29.29,North,0,0.0,0.0,55,0.01,,,0.09,WUHU216HW,2013-02-23 21:52:00,
2013-02-23 16:57:00,40.3,25.3,29.29,North,0,0.0,0.0,55,0.01,,,0.09,WUHU216HW,2013-02-23 21:57:00,
2013-02-23 17:02:00,40.1,25.6,29.28,North,0,0.0,0.0,56,0.01,,,0.09,WUHU216HW,2013-02-23 22:02:00,
2013-02-23 17:07:00,40.1,25.6,29.28,North,0,0.0,0.0,56,0.01,,,0.09,WUHU216HW,2013-02-23 22:07:00,
2013-02-23 17:12:00,39.4,25.4,29.28,North,0,0.0,0.0,57,0.01,,,0.09,WUHU216HW,2013-02-23 22:12:00,
2013-02-23 17:17:00,39.1,25.5,29.28,North,0,0.0,0.0,58,0.01,,,0.09,WUHU216HW,2013-02-23 22:17:00,
2013-02-23 17:22:00,38.9,25.3,29.28,North,0,0.0,0.0,58,0.01,,,0.09,WUHU216HW,2013-02-23 22:22:00,
2013-02-23 17:27:00,38.7,25.1,29.27,North,0,0.0,0.0,58,0.01,,,0.09,WUHU216HW,2013-02-23 22:27:00,
2013-02-23 17:32:00,38.0,24.5,29.28,North,0,0.0,0.0,58,0.01,,,0.09,WUHU216HW,2013-02-23 22:32:00,
2013-02-23 17:38:00,37.4,24.8,29.28,North,0,0.0,0.0,60,0.00,,,0.09,WUHU216HW,2013-02-23 22:38:00,
2013-02-23 17:43:00,37.3,24.7,29.27,North,0,0.0,0.0,60,0.00,,,0.09,WUHU216HW,2013-02-23 22:43:00,
2013-02-23 17:48:00,37.1,24.5,29.27,North,0,0.0,0.0,60,0.00,,,0.09,WUHU216HW,2013-02-23 22:48:00,
2013-02-23 17:53:00,36.7,24.6,29.28,North,0,0.0,0.0,61,0.00,,,0.09,WUHU216HW,2013-02-23 22:53:00,
2013-02-23 17:58:00,36.4,24.6,29.28,North,0,0.0,0.0,62,0.00,,,0.09,WUHU216HW,2013-02-23 22:58:00,
2013-02-23 18:03:00,36.0,25.0,29.28,North,0,0.0,0.0,64,0.00,,,0.09,WUHU216HW,2013-02-23 23:03:00,
2013-02-23 18:08:00,35.6,25.0,29.28,North,0,0.0,0.0,65,0.00,,,0.09,WUHU216HW,2013-02-23 23:08:00,
2013-02-23 18:13:00,35.3,24.7,29.28,North,0,0.0,0.0,65,0.00,,,0.09,WUHU216HW,2013-02-23 23:13:00,
2013-02-23 18:18:00,35.1,24.8,29.28,North,0,0.0,0.0,66,0.00,,,0.09,WUHU216HW,2013-02-23 23:18:00,
2013-02-23 18:23:00,34.9,24.7,29.29,North,0,0.0,0.0,66,0.00,,,0.09,WUHU216HW,2013-02-23 23:23:00,
2013-02-23 18:28:00,34.4,24.5,29.29,North,0,0.0,0.0,67,0.00,,,0.09,WUHU216HW,2013-02-23 23:28:00,
2013-02-23 18:33:00,34.2,24.3,29.29,North,0,0.0,0.0,67,0.00,,,0.09,WUHU216HW,2013-02-23 23:33:00,
2013-02-23 18:38:00,34.0,24.1,29.29,North,0,0.0,0.0,67,0.00,,,0.09,WUHU216HW,2013-02-23 23:38:00,
2013-02-23 18:43:00,33.7,23.8,29.29,North,0,0.0,0.0,67,0.00,,,0.09,WUHU216HW,2013-02-23 23:43:00,
2013-02-23 18:48:00,33.5,23.6,29.30,North,0,0.0,0.0,67,0.00,,,0.09,WUHU216HW,2013-02-23 23:48:00,
2013-02-23 18:53:00,33.3,23.5,29.30,North,0,0.0,0.0,67,0.00,,,0.09,WUHU216HW,2013-02-23 23:53:00,
2013-02-23 18:58:00,33.1,23.3,29.30,North,0,0.0,0.0,67,0.00,,,0.09,WUHU216HW,2013-02-23 23:58:00,
2013-02-23 19:03:00,32.9,23.1,29.30,North,0,0.0,0.0,67,0.00,,,0.09,WUHU216HW,2013-02-24 00:03:00,
2013-02-23 19:08:00,32.8,23.0,29.30,North,0,0.0,0.0,67,0.00,,,0.09,WUHU216HW,2013-02-24 00:08:00,
2013-02-23 19:14:00,32.6,22.8,29.31,North,0,0.0,0.0,67,0.00,,,0.09,WUHU216HW,2013-02-24 00:14:00,
2013-02-23 19:19:00,32.4,22.7,29.31,North,0,0.0,0.0,67,0.00,,,0.09,WUHU216HW,2013-02-24 00:19:00,
2013-02-23 19:24:00,32.0,22.7,29.31,North,0,0.0,0.0,68,0.00,,,0.09,WUHU216HW,2013-02-24 00:24:00,
2013-02-23 19:29:00,32.0,22.0,29.31,North,0,0.0,0.0,66,0.00,,,0.09,WUHU216HW,2013-02-24 00:29:00,
2013-02-23 19:34:00,31.9,21.8,29.31,North,0,0.0,0.0,66,0.00,,,0.09,WUHU216HW,2013-02-24 00:34:00,
2013-02-23 19:39:00,31.7,21.6,29.31,North,0,0.0,0.0,66,0.00,,,0.09,WUHU216HW,2013-02-24 00:39:00,
2013-02-23 19:44:00,31.3,20.9,29.31,North,0,0.0,0.0,65,0.00,,,0.09,WUHU216HW,2013-02-24 00:44:00,
2013-02-23 19:49:00,31.1,21.1,29.31,North,0,0.0,0.0,66,0.00,,,0.09,WUHU216HW,2013-02-24 00:49:00,
2013-02-23 19:54:00,31.0,20.5,29.32,North,0,0.0,0.0,65,0.00,,,0.09,WUHU216HW,2013-02-24 00:54:00,
2013-02-23 19:59:00,30.8,20.3,29.32,North,0,0.0,0.0,65,0.00,,,0.09,WUHU216HW,2013-02-24 00:59:00,
2013-02-23 20:04:00,30.6,19.8,29.32,North,0,0.0,0.0,64,0.00,,,0.09,WUHU216HW,2013-02-24 01:04:00,
2013-02-23 20:09:00,30.6,19.8,29.32,North,0,0.0,0.0,64,0.00,,,0.09,WUHU216HW,2013-02-24 01:09:00,
2013-02-23 20:14:00,30.4,19.6,29.32,North,0,0.0,0.0,64,0.00,,,0.09,WUHU216HW,2013-02-24 01:14:00,
2013-02-23 20:19:00,30.4,18.9,29.32,North,0,0.0,0.0,62,0.00,,,0.09,WUHU216HW,2013-02-24 01:19:00,
2013-02-23 20:24:00,30.2,18.7,29.32,North,0,0.0,0.0,62,0.00,,,0.09,WUHU216HW,2013-02-24 01:24:00,
2013-02-23 20:29:00,29.9,18.7,29.32,North,0,0.0,0.0,63,0.00,,,0.09,WUHU216HW,2013-02-24 01:29:00,
2013-02-23 20:34:00,29.7,18.3,29.32,North,0,0.0,0.0,62,0.00,,,0.09,WUHU216HW,2013-02-24 01:34:00,
2013-02-23 20:40:00,29.5,18.1,29.32,North,0,0.0,0.0,62,0.00,,,0.09,WUHU216HW,2013-02-24 01:40:00,
2013-02-23 20:45:00,29.3,17.6,29.32,North,0,0.0,0.0,61,0.00,,,0.09,WUHU216HW,2013-02-24 01:45:00,
2013-02-23 20:50:00,29.3,17.9,29.32,North,0,0.0,0.0,62,0.00,,,0.09,WUHU216HW,2013-02-24 01:50:00,
2013-02-23 20:55:00,29.2,17.7,29.32,North,0,0.0,0.0,62,0.00,,,0.09,WUHU216HW,2013-02-24 01:55:00,
2013-02-23 21:00:00,29.2,17.4,29.32,North,0,0.0,0.0,61,0.00,,,0.09,WUHU216HW,2013-02-24 02:00:00,
2013-02-23 21:05:00,28.8,17.1,29.32,North,0,0.0,0.0,61,0.00,,,0.09,WUHU216HW,2013-02-24 02:05:00,
2013-02-23 21:10:00,28.8,17.1,29.32,North,0,0.0,0.0,61,0.00,,,0.09,WUHU216HW,2013-02-24 02:10:00,
2013-02-23 21:15:00,28.6,16.9,29.32,North,0,0.0,0.0,61,0.00,,,0.09,WUHU216HW,2013-02-24 02:15:00,
2013-02-23 21:20:00,28.4,16.4,29.32,North,0,0.0,0.0,60,0.00,,,0.09,WUHU216HW,2013-02-24 02:20:00,
2013-02-23 21:25:00,28.4,16.4,29.32,North,0,0.0,0.0,60,0.00,,,0.09,WUHU216HW,2013-02-24 02:25:00,
2013-02-23 21:30:00,28.3,16.2,29.32,North,0,0.0,0.0,60,0.00,,,0.09,WUHU216HW,2013-02-24 02:30:00,
2013-02-23 21:35:00,28.1,16.0,29.32,North,0,0.0,0.0,60,0.00,,,0.09,WUHU216HW,2013-02-24 02:35:00,
2013-02-23 21:40:00,28.1,16.0,29.32,North,0,0.0,0.0,60,0.00,,,0.09,WUHU216HW,2013-02-24 02:40:00,
2013-02-23 21:45:00,27.9,15.4,29.33,North,0,0.0,0.0,59,0.00,,,0.09,WUHU216HW,2013-02-24 02:45:00,
2013-02-23 21:50:00,27.7,15.2,29.32,North,0,0.0,0.0,59,0.00,,,0.09,WUHU216HW,2013-02-24 02:50:00,
2013-02-23 21:55:00,27.7,14.9,29.32,North,0,0.0,0.0,58,0.00,,,0.09,WUHU216HW,2013-02-24 02:55:00,
2013-02-23 22:00:00,27.5,14.7,29.32,North,0,0.0,0.0,58,0.00,,,0.09,WUHU216HW,2013-02-24 03:00:00,
2013-02-23 22:05:00,27.5,14.7,29.32,North,0,0.0,0.0,58,0.00,,,0.09,WUHU216HW,2013-02-24 03:05:00,
2013-02-23 22:10:00,27.4,14.0,29.32,North,0,0.0,0.0,57,0.00,,,0.09,WUHU216HW,2013-02-24 03:10:00,
2013-02-23 22:15:00,27.4,13.7,29.32,North,0,0.0,0.0,56,0.00,,,0.09,WUHU216HW,2013-02-24 03:15:00,
2013-02-23 22:20:00,27.2,13.9,29.32,North,0,0.0,0.0,57,0.00,,,0.09,WUHU216HW,2013-02-24 03:20:00,
2013-02-23 22:25:00,27.2,13.9,29.32,North,0,0.0,0.0,57,0.00,,,0.09,WUHU216HW,2013-02-24 03:25:00,
2013-02-23 22:31:00,27.0,14.1,29.32,North,0,0.0,0.0,58,0.00,,,0.09,WUHU216HW,2013-02-24 03:31:00,
2013-02-23 22:36:00,27.0,14.1,29.32,North,0,0.0,0.0,58,0.00,,,0.09,WUHU216HW,2013-02-24 03:36:00,
2013-02-23 22:41:00,26.8,14.0,29.32,North,0,0.0,0.0,58,0.00,,,0.09,WUHU216HW,2013-02-24 03:41:00,
2013-02-23 22:46:00,26.6,13.3,29.32,North,0,0.0,0.0,57,0.00,,,0.09,WUHU216HW,2013-02-24 03:46:00,
2013-02-23 22:51:00,26.5,13.1,29.32,North,0,0.0,0.0,57,0.00,,,0.09,WUHU216HW,2013-02-24 03:51:00,
2013-02-23 22:56:00,26.5,12.8,29.32,North,0,0.0,0.0,56,0.00,,,0.09,WUHU216HW,2013-02-24 03:56:00,
2013-02-23 23:01:00,26.6,12.5,29.32,North,0,0.0,0.0,55,0.00,,,0.09,WUHU216HW,2013-02-24 04:01:00,
2013-02-23 23:06:00,27.0,12.9,29.32,North,0,0.0,0.0,55,0.00,,,0.09,WUHU216HW,2013-02-24 04:06:00,
2013-02-23 23:11:00,27.0,13.3,29.32,North,0,0.0,0.0,56,0.00,,,0.09,WUHU216HW,2013-02-24 04:11:00,
2013-02-23 23:16:00,27.2,13.5,29.32,North,0,0.0,0.0,56,0.00,,,0.09,WUHU216HW,2013-02-24 04:16:00,
2013-02-23 23:21:00,27.4,14.0,29.32,North,0,0.0,0.0,57,0.00,,,0.09,WUHU216HW,2013-02-24 04:21:00,
2013-02-23 23:26:00,27.4,15.7,29.32,North,0,0.0,0.0,61,0.00,,,0.09,WUHU216HW,2013-02-24 04:26:00,
2013-02-23 23:31:00,27.2,15.5,29.32,North,0,0.0,0.0,61,0.00,,,0.09,WUHU216HW,2013-02-24 04:31:00,
2013-02-23 23:36:00,27.4,15.3,29.32,North,0,0.0,0.0,60,0.00,,,0.09,WUHU216HW,2013-02-24 04:36:00,
2013-02-23 23:41:00,27.4,15.7,29.32,North,0,0.0,0.0,61,0.00,,,0.09,WUHU216HW,2013-02-24 04:41:00,
2013-02-23 23:46:00,27.4,15.7,29.32,North,0,0.0,0.0,61,0.00,,,0.09,WUHU216HW,2013-02-24 04:46:00,
2013-02-23 23:51:00,27.4,15.7,29.32,North,0,0.0,0.0,61,0.00,,,0.09,WUHU216HW,2013-02-24 04:51:00,
2013-02-23 23:56:00,27.4,16.0,29.32,North,0,0.0,0.0,62,0.00,,,0.09,WUHU216HW,2013-02-24 04:56:00,